Arnold Palmer Regional Airport
KLBE : rendu visible

Aérodrome :











RETROUVEZ-NOUS SUR...

 
LOGIN :

S'inscrire | Disclaimer

   EN    FR    IT 

 









Légende :    VFR   VFR Marginal   IFR   IFR Intensif   IFR Très Intensif
Visi : 
Plafond : 
>= 8 km
>= 3000ft
5 à 8 km
1000 à 3000 ft
1500m à 5 km
500 à 1000 ft
800 à 1500m
200 à 500 ft
< 800m
< 200 ft
Symboles :   Orages  Brouillard  Fortes neiges  Fortes précipitations  Vent > 20 kt






- Altitude de l'aérodrome : 1199 ft
- Code IATA : LBE


KLBE - Arnold Palmer Regional

DERNIER METAR :
  • 300235Z AUTO 20005KT 10SM SCT008 SCT044 BKN110 17/17 A2998 RMK AO2

METARs EXPIRÉS :
  • 300215Z AUTO 00000KT 9SM FEW012 SCT050 BKN090 17/17 A2998 RMK AO2
  • 300151Z 21005KT 5SM -RA SCT012 17/17 A2999
  • 300051Z 00000KT 6SM -RA SCT028 17/17 A2998
  • 292351Z 15009KT 10SM -RA BKN010 17/17 A2997

TAF KLBE
Valide du 30 à 00h jusqu'au 31 à 00h UTC


292320Z 3000/3024 24006KT 4SM -SHRA BKN025
FM300300 22009KT P6SM BKN015
FM300500 27006KT P6SM BKN013
FM301000 24003KT 5SM BR SCT025
FM301300 27009KT P6SM SCT080
FIR KZOB / Amérique du Nord



MET'MAP, la Météo Aéronautique d'un coup d'oeil ! - Copyright ORBIFLY Décembre 2007 - Disclaimer

ORBIFLY MET'MAP TEAM :

Programmation & Développement : Alexandra Zaïnal
Sur une idée originale de : Baudouin d'Aumeries
Assistance à la programmation : Marc-Olivier Méhu
Soutien technique & logistique : Manuel Goepfert

Contact : metmap@orbifly.com




SOURCES & CREDITS :

   NOAA       Earth
Advisory